Time;durP1;ratioP1;P1;durP2;ratioP2;P2;SDS_P1;SDS_P2;PMS_P1;PMS_P2;Temp;Humidity;BMP_temperature;BMP_pressure;BME280_temperature;BME280_humidity;BME280_pressure;Samples;Min_cycle;Max_cycle;Signal;HPM_P1;HPM_P2
2023/01/06 00:02:15;;;;;;;8.77;3.95;;;;;;;9.60;100.00;101759.50;5049872;28;20503;-77
2023/01/06 00:04:40;;;;;;;11.18;4.47;;;;;;;9.54;100.00;101739.72;5049932;28;20472;-79
2023/01/06 00:07:05;;;;;;;8.75;4.05;;;;;;;9.64;100.00;101744.84;5049928;28;20060;-77
2023/01/06 00:09:33;;;;;;;8.20;4.28;;;;;;;9.64;100.00;101740.38;5049857;28;20103;-77
2023/01/06 00:11:58;;;;;;;9.38;3.92;;;;;;;9.65;100.00;101734.03;5049488;28;20036;-77
2023/01/06 00:14:23;;;;;;;10.38;4.68;;;;;;;9.65;100.00;101725.22;5049969;28;20511;-77
2023/01/06 00:16:49;;;;;;;11.63;3.92;;;;;;;9.68;100.00;101726.72;5049666;28;20036;-77
2023/01/06 00:19:14;;;;;;;12.43;4.03;;;;;;;9.71;100.00;101731.69;5032013;28;20110;-77
2023/01/06 00:21:41;;;;;;;14.32;4.05;;;;;;;9.71;100.00;101729.84;5031796;28;20934;-77
2023/01/06 00:24:07;;;;;;;10.63;4.20;;;;;;;9.71;100.00;101723.69;5031936;28;20041;-77
2023/01/06 00:26:33;;;;;;;13.13;4.22;;;;;;;9.71;100.00;101721.88;5049571;28;20029;-77
2023/01/06 00:28:58;;;;;;;6.72;3.30;;;;;;;9.72;100.00;101728.00;5049533;28;20036;-77
2023/01/06 00:31:23;;;;;;;9.30;3.95;;;;;;;9.72;100.00;101720.03;5049549;28;20037;-77
2023/01/06 00:33:49;;;;;;;9.38;3.67;;;;;;;9.72;100.00;101720.88;5031611;28;20040;-77
2023/01/06 00:36:14;;;;;;;8.48;3.92;;;;;;;9.71;100.00;101724.53;5049564;28;20029;-77
2023/01/06 00:38:40;;;;;;;9.98;4.35;;;;;;;9.73;100.00;101725.19;5049516;28;20450;-77
2023/01/06 00:42:02;;;;;;;11.75;3.90;;;;;;;9.72;100.00;101723.53;5049534;28;20032;-78
2023/01/06 00:43:55;;;;;;;5.55;3.60;;;;;;;9.74;100.00;101726.84;5049393;28;20083;-77
2023/01/06 00:46:21;;;;;;;13.07;4.50;;;;;;;9.75;100.00;101722.38;5049341;28;20040;-77
2023/01/06 00:48:47;;;;;;;11.85;3.50;;;;;;;9.75;100.00;101714.38;5049448;28;20029;-77
2023/01/06 00:51:12;;;;;;;8.85;3.35;;;;;;;9.76;100.00;101710.69;5049396;28;20025;-78
2023/01/06 00:53:37;;;;;;;6.60;3.70;;;;;;;9.76;100.00;101706.19;5049389;28;20120;-78
2023/01/06 00:56:03;;;;;;;7.25;3.10;;;;;;;9.75;100.00;101720.53;5049360;28;20083;-77
2023/01/06 00:58:32;;;;;;;9.15;3.13;;;;;;;9.75;100.00;101725.88;5049328;28;20488;-71
2023/01/06 01:00:58;;;;;;;8.15;3.15;;;;;;;9.74;100.00;101724.19;5049324;28;20043;-70
2023/01/06 01:03:23;;;;;;;4.57;2.55;;;;;;;9.72;100.00;101717.34;5049213;28;20488;-70
2023/01/06 01:05:49;;;;;;;6.70;3.67;;;;;;;9.75;100.00;101719.72;5049423;28;20037;-70
2023/01/06 01:08:14;;;;;;;6.03;3.15;;;;;;;9.73;100.00;101719.03;5049183;28;20897;-70
2023/01/06 01:10:39;;;;;;;8.48;3.55;;;;;;;9.74;100.00;101726.84;5049312;28;20039;-70
2023/01/06 01:13:05;;;;;;;6.18;2.85;;;;;;;9.75;100.00;101719.72;5031155;28;20851;-70
2023/01/06 01:15:30;;;;;;;5.75;2.70;;;;;;;9.72;100.00;101712.88;5049137;28;20169;-71
2023/01/06 01:17:56;;;;;;;5.85;2.53;;;;;;;9.74;100.00;101716.19;5049153;28;20029;-70
2023/01/06 01:20:21;;;;;;;8.73;3.00;;;;;;;9.73;100.00;101714.53;5031464;28;20045;-70
2023/01/06 01:22:46;;;;;;;7.78;3.28;;;;;;;9.72;100.00;101709.38;5049122;28;20488;-70
2023/01/06 01:25:12;;;;;;;13.07;3.92;;;;;;;9.74;100.00;101710.88;5051843;28;20472;-70
2023/01/06 01:27:37;;;;;;;4.47;2.60;;;;;;;9.75;100.00;101707.22;5034740;28;20507;-71
2023/01/06 01:30:04;;;;;;;7.15;2.95;;;;;;;9.73;100.00;101703.88;5052905;28;20036;-70
2023/01/06 01:32:29;;;;;;;3.90;2.20;;;;;;;9.72;100.00;101696.06;5052756;28;20033;-70
2023/01/06 01:34:55;;;;;;;5.13;1.92;;;;;;;9.74;100.00;101700.22;5035032;28;20083;-70
2023/01/06 01:37:20;;;;;;;6.57;2.95;;;;;;;9.73;100.00;101698.56;5034703;28;20505;-70
2023/01/06 01:39:46;;;;;;;4.50;3.00;;;;;;;9.74;100.00;101694.06;5052505;28;20025;-70
2023/01/06 01:42:17;;;;;;;3.97;2.08;;;;;;;9.73;100.00;101687.06;5052626;28;20491;-70
2023/01/06 01:44:57;;;;;;;7.65;1.85;;;;;;;9.75;100.00;101688.56;5052651;28;20039;-70
2023/01/06 01:47:42;;;;;;;3.65;2.00;;;;;;;9.76;100.00;101682.22;5052597;28;20114;-70
2023/01/06 01:50:28;;;;;;;9.43;2.72;;;;;;;9.77;100.00;101677.72;5052397;28;20043;-71
2023/01/06 01:53:00;;;;;;;4.60;2.10;;;;;;;9.77;100.00;101685.72;5052433;28;20017;-71
2023/01/06 01:55:27;;;;;;;;;;;;;;;9.79;100.00;101676.56;5052822;28;20033;-70
2023/01/06 01:58:01;;;;;;;6.13;1.98;;;;;;;9.74;100.00;101670.06;5052373;28;19912;-71
2023/01/06 02:00:27;;;;;;;8.80;2.00;;;;;;;9.71;100.00;101670.44;5034328;28;20110;-71
2023/01/06 02:02:53;;;;;;;5.75;1.92;;;;;;;9.72;100.00;101672.06;5052181;28;20095;-70
2023/01/06 02:05:22;;;;;;;4.78;1.70;;;;;;;9.73;100.00;101673.75;5034584;28;20048;-70
2023/01/06 02:07:48;;;;;;;2.80;1.30;;;;;;;9.71;100.00;101665.91;5052163;28;20468;-71
2023/01/06 02:10:19;;;;;;;4.55;1.77;;;;;;;9.75;100.00;101669.09;5052039;28;20047;-71
2023/01/06 02:12:48;;;;;;;6.07;2.13;;;;;;;9.76;100.00;101665.41;5052095;28;20025;-70
2023/01/06 02:15:26;;;;;;;5.32;1.80;;;;;;;9.75;100.00;101658.44;5051954;28;20025;-70
2023/01/06 02:18:29;;;;;;;2.40;1.38;;;;;;;9.76;100.00;101665.41;5051920;28;20021;-70
2023/01/06 02:21:08;;;;;;;2.40;1.73;;;;;;;9.73;100.00;101663.94;5051932;28;20029;-70
2023/01/06 02:24:05;;;;;;;2.35;1.77;;;;;;;9.77;100.00;101662.59;5051887;28;21077;-70
2023/01/06 02:26:49;;;;;;;4.45;1.50;;;;;;;9.76;100.00;101649.44;5051896;28;20472;-71
2023/01/06 02:29:51;;;;;;;7.00;2.45;;;;;;;9.76;100.00;101649.44;5051719;28;20035;-70
2023/01/06 02:32:29;;;;;;;;;;;;;;;9.80;100.00;101645.44;5034396;28;20032;-70
2023/01/06 02:35:07;;;;;;;1.90;1.40;;;;;;;9.76;100.00;101644.09;5051369;28;19920;-71
2023/01/06 02:37:41;;;;;;;4.38;1.58;;;;;;;9.77;100.00;101648.41;5051629;28;20402;-70
2023/01/06 02:40:24;;;;;;;4.38;1.50;;;;;;;9.73;100.00;101639.13;5051532;28;20035;-70
2023/01/06 02:42:59;;;;;;;2.30;1.08;;;;;;;9.79;100.00;101639.25;5051469;28;20108;-70
2023/01/06 02:45:39;;;;;;;3.22;1.70;;;;;;;9.77;100.00;101630.63;5051524;28;20056;-70
2023/01/06 02:48:22;;;;;;;5.30;1.50;;;;;;;9.75;100.00;101624.63;5051271;28;20036;-71
2023/01/06 02:51:03;;;;;;;3.88;1.75;;;;;;;9.78;100.00;101618.97;5051326;28;20044;-70
2023/01/06 02:53:42;;;;;;;3.95;1.90;;;;;;;9.75;100.00;101611.31;5051435;28;20040;-71
2023/01/06 02:56:08;;;;;;;5.40;1.50;;;;;;;9.76;100.00;101615.63;5051291;28;20549;-71
2023/01/06 02:58:43;;;;;;;5.38;1.70;;;;;;;9.77;100.00;101611.13;5051182;28;20036;-70
2023/01/06 03:01:15;;;;;;;4.80;1.83;;;;;;;9.79;100.00;101611.78;5051170;28;20849;-70
2023/01/06 03:03:46;;;;;;;6.20;1.40;;;;;;;9.74;100.00;101606.97;5050907;28;20392;-70
2023/01/06 03:06:16;;;;;;;2.95;1.10;;;;;;;9.77;100.00;101601.31;5051164;28;20029;-71
2023/01/06 03:08:45;;;;;;;4.35;1.20;;;;;;;9.76;100.00;101601.47;5051080;28;20610;-70
2023/01/06 03:11:11;;;;;;;6.45;1.30;;;;;;;9.79;100.00;101595.81;5050938;28;20017;-70
2023/01/06 03:13:55;;;;;;;2.97;1.27;;;;;;;9.79;100.00;101595.81;5050981;28;20033;-70
2023/01/06 03:16:21;;;;;;;8.52;1.48;;;;;;;9.79;100.00;101606.47;5051035;28;20182;-70
2023/01/06 03:18:49;;;;;;;4.13;1.25;;;;;;;9.79;100.00;101606.47;5050798;28;20506;-71
2023/01/06 03:21:19;;;;;;;2.78;0.90;;;;;;;9.80;100.00;101602.81;5050842;28;20025;-70
2023/01/06 03:23:46;;;;;;;4.78;1.00;;;;;;;9.80;100.00;101590.31;5050531;28;20028;-70
2023/01/06 03:26:12;;;;;;;2.33;1.10;;;;;;;9.82;100.00;101598.97;5050686;28;20494;-71
2023/01/06 03:28:37;;;;;;;6.13;1.75;;;;;;;9.83;100.00;101591.81;5050699;28;20056;-71
2023/01/06 03:31:15;;;;;;;2.95;1.55;;;;;;;9.77;100.00;101581.81;5050643;28;20025;-70
2023/01/06 03:33:45;;;;;;;3.90;1.45;;;;;;;9.81;100.00;101588.47;5050559;28;20064;-70
2023/01/06 03:36:32;;;;;;;1.10;1.00;;;;;;;9.80;100.00;101581.50;5050452;28;20183;-70
2023/01/06 03:39:36;;;;;;;3.78;1.38;;;;;;;9.85;100.00;101595.97;5050456;28;20360;-70
2023/01/06 03:45:15;;;;;;;2.47;1.30;;;;;;;9.81;100.00;101570.66;5030575;28;20070;-70
2023/01/06 03:47:51;;;;;;;3.65;1.33;;;;;;;9.83;100.00;101566.00;5049578;28;20111;-70
2023/01/06 03:50:25;;;;;;;3.90;1.52;;;;;;;9.87;100.00;101569.94;5050141;28;20055;-70
2023/01/06 03:53:36;;;;;;;2.42;1.30;;;;;;;9.88;100.00;101578.78;5050344;28;20024;-70
2023/01/06 03:56:32;;;;;;;5.40;1.42;;;;;;;9.86;100.00;101578.13;4987141;28;20101;-70
2023/01/06 03:59:04;;;;;;;2.10;1.13;;;;;;;9.85;100.00;101593.28;5050124;28;20029;-70
2023/01/06 04:01:30;;;;;;;2.40;1.65;;;;;;;9.87;100.00;101590.44;5049816;28;20037;-70
2023/01/06 04:03:55;;;;;;;5.15;1.35;;;;;;;9.85;100.00;101579.97;5049994;28;20037;-70
2023/01/06 04:06:21;;;;;;;6.63;1.73;;;;;;;9.86;100.00;101583.47;5032236;28;20064;-71
2023/01/06 04:08:47;;;;;;;2.00;1.42;;;;;;;9.84;100.00;101582.78;5049806;28;20044;-70
2023/01/06 04:12:37;;;;;;;2.40;1.20;;;;;;;9.86;100.00;101570.13;5049873;28;20032;-70
2023/01/06 04:13:59;;;;;;;2.42;1.63;;;;;;;9.84;100.00;101564.16;5049657;28;20124;-70
2023/01/06 04:16:24;;;;;;;1.55;1.10;;;;;;;9.86;100.00;101556.81;5032136;28;20032;-70
2023/01/06 04:18:50;;;;;;;7.65;2.25;;;;;;;9.81;100.00;101543.19;5049822;28;20029;-70
2023/01/06 04:21:15;;;;;;;3.95;1.73;;;;;;;9.82;100.00;101542.16;5031911;28;20408;-70
2023/01/06 04:23:41;;;;;;;3.63;1.98;;;;;;;9.80;100.00;101534.38;5049661;28;20032;-70
2023/01/06 04:26:06;;;;;;;6.03;1.65;;;;;;;9.81;100.00;101536.03;5049627;28;20033;-71
2023/01/06 04:28:31;;;;;;;5.35;2.00;;;;;;;9.86;100.00;101532.84;5049652;28;20068;-71
2023/01/06 04:30:57;;;;;;;6.22;1.60;;;;;;;9.85;100.00;101533.81;5049643;28;20021;-71
2023/01/06 04:33:23;;;;;;;2.35;0.90;;;;;;;9.86;100.00;101522.19;5049585;28;20170;-71
2023/01/06 04:35:48;;;;;;;2.08;1.50;;;;;;;9.85;100.00;101520.50;5049450;28;20539;-71
2023/01/06 04:38:13;;;;;;;2.90;1.15;;;;;;;9.84;100.00;101526.84;5031753;28;20029;-70
2023/01/06 04:40:41;;;;;;;3.40;1.25;;;;;;;9.79;100.00;101503.38;5049580;28;20060;-70
2023/01/06 04:43:06;;;;;;;2.30;1.20;;;;;;;9.82;100.00;101505.72;5049470;28;20036;-71
2023/01/06 04:45:35;;;;;;;21.48;2.72;;;;;;;9.81;100.00;101503.22;5049460;28;20041;-71
2023/01/06 04:48:00;;;;;;;4.13;2.13;;;;;;;9.85;100.00;101497.38;5049295;28;20072;-71
2023/01/06 04:50:26;;;;;;;3.35;1.30;;;;;;;9.85;100.00;101497.38;5031394;28;20056;-71
2023/01/06 04:52:51;;;;;;;8.18;3.25;;;;;;;9.83;100.00;101496.72;5049300;28;20064;-71
2023/01/06 04:55:17;;;;;;;2.15;1.13;;;;;;;9.83;100.00;101496.72;5031460;28;20036;-71
2023/01/06 04:57:42;;;;;;;6.00;1.20;;;;;;;9.81;100.00;101487.25;5049848;28;20033;-70
2023/01/06 05:00:08;;;;;;;4.82;1.42;;;;;;;9.86;100.00;101490.22;5053537;28;20206;-70
2023/01/06 05:02:34;;;;;;;5.43;1.35;;;;;;;9.85;100.00;101475.22;5053308;28;20049;-70
2023/01/06 05:04:59;;;;;;;1.98;0.95;;;;;;;9.87;100.00;101486.53;5053350;28;20457;-78
2023/01/06 05:07:24;;;;;;;1.85;1.05;;;;;;;9.86;100.00;101493.69;5053358;28;20033;-77
2023/01/06 05:09:50;;;;;;;2.58;1.00;;;;;;;9.85;100.00;101470.75;5053258;28;20418;-78
2023/01/06 05:12:15;;;;;;;1.35;1.08;;;;;;;9.86;100.00;101487.53;5053078;28;20079;-77
2023/01/06 05:14:40;;;;;;;2.40;0.95;;;;;;;9.83;100.00;101472.75;5053173;28;20029;-78
2023/01/06 05:17:06;;;;;;;3.65;1.20;;;;;;;9.78;100.00;101452.97;5053249;28;20087;-78
2023/01/06 05:19:31;;;;;;;4.25;0.93;;;;;;;9.88;100.00;101474.88;5053151;28;20044;-78
2023/01/06 05:21:56;;;;;;;6.53;1.15;;;;;;;9.88;100.00;101473.03;5053227;28;20024;-78
2023/01/06 05:24:22;;;;;;;1.88;1.02;;;;;;;9.87;100.00;101466.03;5052952;28;20605;-78
2023/01/06 05:26:47;;;;;;;1.80;0.90;;;;;;;9.91;100.00;101476.38;5034855;28;20518;-76
2023/01/06 05:29:15;;;;;;;2.00;1.17;;;;;;;9.90;100.00;101467.53;5052768;28;20403;-77
2023/01/06 05:31:41;;;;;;;1.58;0.82;;;;;;;9.94;100.00;101466.19;5052797;28;20057;-78
2023/01/06 05:34:06;;;;;;;2.10;1.35;;;;;;;9.95;100.00;101475.00;5052838;28;20123;-77
2023/01/06 05:36:31;;;;;;;1.85;1.63;;;;;;;9.96;100.00;101468.66;5052866;28;20040;-77
2023/01/06 05:38:57;;;;;;;1.02;0.95;;;;;;;9.96;100.00;101472.16;5034967;28;20033;-77
2023/01/06 05:41:22;;;;;;;2.25;1.50;;;;;;;9.98;100.00;101477.28;5052618;28;20029;-77
2023/01/06 05:43:47;;;;;;;5.50;1.08;;;;;;;10.00;100.00;101475.28;5052692;28;20028;-78
2023/01/06 05:46:13;;;;;;;1.20;1.10;;;;;;;9.97;100.00;101478.31;5034626;28;20055;-78
2023/01/06 05:48:39;;;;;;;2.47;0.93;;;;;;;9.96;100.00;101474.81;5052456;28;20029;-77
2023/01/06 05:51:10;;;;;;;2.03;0.77;;;;;;;9.96;100.00;101468.66;5052608;28;20025;-78
2023/01/06 05:53:38;;;;;;;3.97;1.45;;;;;;;9.97;100.00;101472.97;5052496;28;20029;-77
2023/01/06 05:56:05;;;;;;;1.17;1.00;;;;;;;9.96;100.00;101469.50;5052450;28;20025;-78
2023/01/06 05:58:33;;;;;;;1.77;1.10;;;;;;;9.98;100.00;101471.97;5052380;28;20029;-78
2023/01/06 06:00:59;;;;;;;4.43;1.15;;;;;;;9.96;100.00;101479.34;5051967;28;20051;-78
2023/01/06 06:03:25;;;;;;;1.10;0.80;;;;;;;9.96;100.00;101482.00;5052166;28;20091;-78
2023/01/06 06:05:50;;;;;;;1.10;0.85;;;;;;;9.98;100.00;101494.13;5052011;28;20037;-78
2023/01/06 06:08:15;;;;;;;1.65;1.30;;;;;;;10.00;100.00;101480.63;5051971;28;20556;-77
2023/01/06 06:10:41;;;;;;;6.32;1.40;;;;;;;9.99;100.00;101503.78;5033575;28;20029;-78
2023/01/06 06:13:06;;;;;;;5.47;1.92;;;;;;;9.99;100.00;101492.28;5034266;28;20119;-77
2023/01/06 06:15:32;;;;;;;3.30;1.30;;;;;;;10.03;100.00;101490.91;5017560;28;20090;-78
2023/01/06 06:17:57;;;;;;;2.55;1.10;;;;;;;9.99;100.00;101485.13;5052028;28;20021;-77
2023/01/06 06:20:22;;;;;;;2.83;1.20;;;;;;;9.98;100.00;101482.63;5034046;28;20499;-77
2023/01/06 06:22:47;;;;;;;2.67;1.60;;;;;;;9.94;100.00;101487.50;5051851;28;20438;-77
2023/01/06 06:25:13;;;;;;;1.33;0.90;;;;;;;9.91;100.00;101485.19;5051812;28;20033;-77
2023/01/06 06:27:38;;;;;;;1.98;1.70;;;;;;;9.86;100.00;101482.22;5051859;28;20033;-77
2023/01/06 06:30:07;;;;;;;2.22;1.10;;;;;;;9.88;100.00;101480.22;5051840;28;20033;-78
2023/01/06 06:32:32;;;;;;;1.67;1.38;;;;;;;9.89;100.00;101481.84;5051755;28;20499;-77
2023/01/06 06:34:58;;;;;;;2.28;0.85;;;;;;;9.87;100.00;101473.22;5051616;28;20044;-78
2023/01/06 06:37:23;;;;;;;1.30;1.00;;;;;;;9.86;100.00;101471.56;5033661;28;20110;-77
2023/01/06 06:39:48;;;;;;;1.55;1.17;;;;;;;9.87;100.00;101467.88;5051519;28;20032;-77
2023/01/06 06:42:14;;;;;;;2.08;1.10;;;;;;;9.90;100.00;101472.03;5033709;28;20025;-77
2023/01/06 06:44:39;;;;;;;4.50;0.98;;;;;;;9.91;100.00;101471.03;5051504;28;20488;-77
2023/01/06 06:47:04;;;;;;;4.10;1.23;;;;;;;9.85;100.00;101459.22;5051522;28;20472;-77
2023/01/06 06:49:30;;;;;;;2.65;1.63;;;;;;;9.84;100.00;101463.72;5051435;28;20029;-78
2023/01/06 06:51:55;;;;;;;3.50;1.80;;;;;;;9.92;100.00;101473.50;5051376;28;20025;-77
2023/01/06 06:54:20;;;;;;;2.75;1.20;;;;;;;9.94;100.00;101471.50;5033689;28;20111;-77
2023/01/06 06:56:46;;;;;;;2.08;1.10;;;;;;;9.90;100.00;101472.84;5051278;28;20562;-78
2023/01/06 06:59:11;;;;;;;4.07;1.45;;;;;;;9.92;100.00;101478.84;5051237;28;20120;-77
2023/01/06 07:01:36;;;;;;;4.60;1.90;;;;;;;9.94;100.00;101482.16;5051104;28;20056;-78
2023/01/06 07:04:02;;;;;;;5.03;1.73;;;;;;;9.90;100.00;101475.50;5033362;28;20599;-77
2023/01/06 07:06:27;;;;;;;2.42;1.35;;;;;;;9.88;100.00;101480.22;5033198;28;20033;-78
2023/01/06 07:08:53;;;;;;;2.38;1.20;;;;;;;9.88;100.00;101490.88;5051071;28;20033;-77
2023/01/06 07:11:19;;;;;;;1.73;1.30;;;;;;;9.90;100.00;101491.50;5033219;28;20548;-77
2023/01/06 07:13:45;;;;;;;4.55;1.30;;;;;;;9.84;100.00;101498.38;5051030;28;20116;-77
2023/01/06 07:16:11;;;;;;;2.95;1.33;;;;;;;9.85;100.00;101509.84;5050975;28;20056;-77
2023/01/06 07:18:37;;;;;;;2.45;1.33;;;;;;;9.84;100.00;101502.88;5050906;28;20033;-77
2023/01/06 07:21:02;;;;;;;1.40;1.27;;;;;;;9.86;100.00;101508.84;5015871;28;20092;-77
2023/01/06 07:23:29;;;;;;;1.80;1.70;;;;;;;9.82;100.00;101511.06;5050247;28;20090;-76
2023/01/06 07:25:56;;;;;;;2.60;1.50;;;;;;;9.80;100.00;101510.41;5050823;28;20021;-77
2023/01/06 07:28:22;;;;;;;2.95;1.50;;;;;;;9.75;100.00;101499.44;5050636;28;20080;-77
2023/01/06 07:30:48;;;;;;;3.30;1.40;;;;;;;9.68;100.00;101511.78;5050685;28;20192;-77
2023/01/06 07:33:14;;;;;;;2.08;1.70;;;;;;;9.64;100.00;101505.13;5050742;28;20119;-77
2023/01/06 07:35:39;;;;;;;3.13;2.10;;;;;;;9.60;100.00;101512.66;5050410;28;20369;-77
2023/01/06 07:38:06;;;;;;;1.70;1.35;;;;;;;9.55;100.00;101501.69;5032390;28;20361;-75
2023/01/06 07:40:32;;;;;;;2.78;1.83;;;;;;;9.57;100.00;101510.34;5050218;28;20083;-77
2023/01/06 07:43:08;;;;;;;2.83;1.50;;;;;;;9.56;100.00;101518.50;5080218;27;1457388;-77
2023/01/06 07:45:33;;;;;;;2.22;1.63;;;;;;;9.54;100.00;101507.22;5128049;28;20042;-77
2023/01/06 07:47:59;;;;;;;3.95;1.65;;;;;;;9.51;100.00;101520.84;5128038;27;20031;-77
2023/01/06 07:50:25;;;;;;;4.28;1.85;;;;;;;9.51;100.00;101518.19;5127820;27;20027;-79
2023/01/06 07:52:50;;;;;;;3.38;1.80;;;;;;;9.53;100.00;101517.00;5127911;27;20485;-76
2023/01/06 07:55:16;;;;;;;3.70;1.90;;;;;;;9.54;100.00;101523.19;5127926;27;20038;-76
2023/01/06 07:57:41;;;;;;;4.22;2.30;;;;;;;9.53;100.00;101518.84;5128026;28;20038;-76
2023/01/06 08:00:07;;;;;;;2.85;1.75;;;;;;;9.51;100.00;101521.69;5127898;27;20027;-75
2023/01/06 08:02:33;;;;;;;2.90;1.77;;;;;;;9.55;100.00;101525.66;5126846;28;20470;-76
2023/01/06 08:04:58;;;;;;;3.10;2.08;;;;;;;9.53;100.00;101535.66;5125552;28;20163;-76
2023/01/06 08:07:24;;;;;;;2.47;1.73;;;;;;;9.52;100.00;101530.50;5127198;28;20138;-76
2023/01/06 08:09:49;;;;;;;1.60;1.50;;;;;;;9.59;100.00;101545.63;5127288;27;20097;-76
2023/01/06 08:12:14;;;;;;;4.30;1.83;;;;;;;9.57;100.00;101552.13;5127068;28;20107;-76
2023/01/06 08:14:40;;;;;;;2.85;2.00;;;;;;;9.50;100.00;101543.16;5127064;27;20080;-76
2023/01/06 08:17:05;;;;;;;3.08;2.35;;;;;;;9.47;100.00;101539.00;5127049;28;20080;-76
2023/01/06 08:19:31;;;;;;;4.10;2.00;;;;;;;9.53;100.00;101558.78;5126870;27;20067;-76
2023/01/06 08:21:56;;;;;;;3.28;2.17;;;;;;;9.54;100.00;101555.13;5126647;28;20458;-76
2023/01/06 08:24:22;;;;;;;5.93;2.10;;;;;;;9.59;100.00;101558.13;5126645;27;20037;-76
2023/01/06 08:26:47;;;;;;;3.65;2.17;;;;;;;9.59;100.00;101561.59;5124987;28;20055;-76
2023/01/06 08:29:12;;;;;;;3.72;1.88;;;;;;;9.64;100.00;101569.91;5126278;27;20080;-76
2023/01/06 08:31:38;;;;;;;4.03;2.05;;;;;;;9.65;100.00;101576.88;5120136;28;20027;-76
2023/01/06 08:34:04;;;;;;;5.57;1.73;;;;;;;9.68;100.00;101580.22;5106395;28;20035;-76
2023/01/06 08:36:30;;;;;;;4.32;2.03;;;;;;;9.68;100.00;101582.88;5106471;28;20434;-78
2023/01/06 08:38:55;;;;;;;2.70;2.20;;;;;;;9.72;100.00;101595.69;5109335;28;20059;-69
2023/01/06 08:41:20;;;;;;;4.10;2.03;;;;;;;9.78;100.00;101602.16;5106964;28;20075;-69
2023/01/06 08:43:46;;;;;;;8.50;2.78;;;;;;;9.80;100.00;101603.63;5107056;28;20455;-70
2023/01/06 08:46:17;;;;;;;5.10;2.45;;;;;;;9.84;100.00;101604.13;5106761;28;20045;-71
2023/01/06 08:48:43;;;;;;;4.05;2.40;;;;;;;9.85;100.00;101605.75;5108074;28;20401;-72
2023/01/06 08:51:14;;;;;;;5.13;2.60;;;;;;;9.86;100.00;101605.59;5108608;28;20110;-72
2023/01/06 08:53:39;;;;;;;4.15;2.53;;;;;;;9.88;100.00;101600.13;5099346;27;20037;-73
2023/01/06 08:56:12;;;;;;;5.65;3.08;;;;;;;9.88;100.00;101610.78;5093954;28;20111;-68
2023/01/06 08:58:37;;;;;;;5.22;2.40;;;;;;;9.91;100.00;101615.75;5095348;28;20032;-69
2023/01/06 09:01:03;;;;;;;3.45;2.65;;;;;;;9.98;100.00;101623.84;5094082;28;20393;-67
2023/01/06 09:03:28;;;;;;;5.07;2.60;;;;;;;9.86;100.00;101596.78;5099367;28;20074;-69
2023/01/06 09:05:55;;;;;;;7.90;3.13;;;;;;;9.99;100.00;101622.88;5111945;28;20424;-72
2023/01/06 09:08:21;;;;;;;5.85;3.28;;;;;;;10.01;100.00;101620.88;5110602;28;20034;-77
2023/01/06 09:10:47;;;;;;;6.13;3.45;;;;;;;10.02;100.00;101617.19;5111898;28;20049;-76
2023/01/06 09:13:12;;;;;;;7.50;3.20;;;;;;;10.04;100.00;101613.34;5111908;28;20023;-77
2023/01/06 09:15:41;;;;;;;6.53;3.17;;;;;;;10.06;100.00;101623.81;5110636;28;20371;-77
2023/01/06 09:18:10;;;;;;;6.38;4.03;;;;;;;10.01;100.00;101620.88;5091872;28;20031;-77
2023/01/06 09:20:36;;;;;;;10.25;4.78;;;;;;;10.02;100.00;101623.34;5092107;28;20028;-77
2023/01/06 09:23:01;;;;;;;6.13;3.53;;;;;;;10.08;100.00;101627.16;5089855;28;20036;-77
2023/01/06 09:25:27;;;;;;;5.55;3.30;;;;;;;10.09;100.00;101634.97;5092244;28;20693;-77
2023/01/06 09:27:52;;;;;;;8.07;4.07;;;;;;;10.11;100.00;101645.44;5092062;28;20032;-77
2023/01/06 09:30:18;;;;;;;7.43;4.50;;;;;;;10.00;100.00;101636.00;5091875;28;20516;-77
2023/01/06 09:32:43;;;;;;;8.63;4.47;;;;;;;10.09;100.00;101650.16;5091981;28;20035;-77
2023/01/06 09:35:09;;;;;;;5.57;3.55;;;;;;;10.09;100.00;101660.81;5091968;28;20028;-78
2023/01/06 09:37:34;;;;;;;6.28;3.97;;;;;;;10.17;100.00;101671.44;5091720;28;20382;-78
2023/01/06 09:40:00;;;;;;;9.00;4.80;;;;;;;10.24;100.00;101674.22;5091690;28;20502;-77
2023/01/06 09:42:51;;;;;;;9.25;4.20;;;;;;;10.29;100.00;101678.03;5091397;28;20079;-77
2023/01/06 09:45:37;;;;;;;8.27;4.97;;;;;;;10.35;100.00;101681.88;5091834;28;20024;-78
2023/01/06 09:48:10;;;;;;;8.30;4.03;;;;;;;10.41;100.00;101680.34;5091693;28;20474;-77
2023/01/06 09:50:47;;;;;;;8.90;4.57;;;;;;;10.48;100.00;101687.47;5091624;28;20053;-77
2023/01/06 09:53:12;;;;;;;6.30;4.13;;;;;;;10.51;100.00;101696.97;5091461;28;20028;-77
2023/01/06 09:55:44;;;;;;;7.05;4.20;;;;;;;10.53;100.00;101700.25;5091669;28;20031;-77
2023/01/06 09:58:16;;;;;;;8.65;4.00;;;;;;;10.48;100.00;101697.31;5091477;28;20031;-77
2023/01/06 10:00:46;;;;;;;13.80;4.82;;;;;;;10.43;100.00;101694.34;5091262;28;20109;-77
2023/01/06 10:03:20;;;;;;;9.77;4.43;;;;;;;10.40;100.00;101698.19;5091485;28;20142;-77
2023/01/06 10:05:54;;;;;;;8.27;4.82;;;;;;;10.40;100.00;101698.19;5090551;28;20035;-77
2023/01/06 10:08:43;;;;;;;8.90;5.10;;;;;;;10.40;100.00;101692.84;5091505;28;20034;-78
2023/01/06 10:11:28;;;;;;;8.00;4.47;;;;;;;10.43;100.00;101697.84;5061724;28;20048;-77
2023/01/06 10:14:09;;;;;;;11.23;4.80;;;;;;;10.47;100.00;101701.78;5111994;27;20196;-77
2023/01/06 10:16:47;;;;;;;8.45;4.25;;;;;;;10.48;100.00;101700.81;5109256;28;20434;-77
2023/01/06 10:19:26;;;;;;;10.43;4.13;;;;;;;10.45;100.00;101695.81;5110496;28;20106;-77
2023/01/06 10:22:33;;;;;;;10.55;4.60;;;;;;;10.55;100.00;101705.44;5110453;27;20118;-77
2023/01/06 10:25:19;;;;;;;8.60;4.72;;;;;;;10.56;100.00;101691.94;5109945;28;20118;-77
2023/01/06 10:27:52;;;;;;;7.18;4.35;;;;;;;10.68;100.00;101695.00;5110497;28;20416;-77
2023/01/06 10:30:19;;;;;;;8.60;4.13;;;;;;;10.73;100.00;101700.66;5110571;28;20111;-77
2023/01/06 10:32:48;;;;;;;9.02;4.97;;;;;;;10.77;100.00;101690.44;5110369;28;20115;-77
2023/01/06 10:35:16;;;;;;;7.35;4.55;;;;;;;10.83;100.00;101693.25;5110332;28;20027;-78
2023/01/06 10:37:45;;;;;;;14.00;4.95;;;;;;;10.84;100.00;101691.41;5110283;28;20024;-71
2023/01/06 10:40:19;;;;;;;7.80;3.85;;;;;;;10.84;100.00;101697.56;5110118;28;20069;-71
2023/01/06 10:43:01;;;;;;;8.02;3.72;;;;;;;10.81;100.00;101692.59;5109989;28;20370;-71
2023/01/06 10:45:31;;;;;;;8.27;4.32;;;;;;;10.81;100.00;101694.44;5109979;28;20084;-70
2023/01/06 10:47:58;;;;;;;9.20;4.05;;;;;;;10.79;100.00;101702.59;5110126;28;20034;-71
2023/01/06 10:50:23;;;;;;;8.63;3.83;;;;;;;10.83;100.00;101700.44;5110019;28;20545;-70
2023/01/06 10:52:49;;;;;;;7.03;3.17;;;;;;;10.84;100.00;101697.56;5109839;28;20027;-71
2023/01/06 10:55:25;;;;;;;6.13;3.53;;;;;;;10.77;100.00;101687.78;5109782;28;20153;-71
2023/01/06 10:57:53;;;;;;;7.97;3.20;;;;;;;10.78;100.00;101710.81;5109820;28;20376;-70
2023/01/06 11:00:23;;;;;;;10.60;3.60;;;;;;;10.78;100.00;101692.13;5109885;28;20430;-71
2023/01/06 11:02:56;;;;;;;3.17;2.50;;;;;;;10.83;100.00;101687.09;5109748;28;20027;-71
2023/01/06 11:05:24;;;;;;;4.43;2.83;;;;;;;10.87;100.00;101696.38;5109587;28;20106;-71
2023/01/06 11:08:04;;;;;;;8.65;3.05;;;;;;;10.93;100.00;101695.69;5107291;28;20403;-72
2023/01/06 11:10:33;;;;;;;6.00;2.70;;;;;;;10.93;100.00;101690.34;5090260;28;20028;-73
2023/01/06 11:13:02;;;;;;;3.97;2.65;;;;;;;11.03;100.00;101698.09;5088916;28;20210;-73
2023/01/06 11:15:35;;;;;;;6.60;2.78;;;;;;;11.12;100.00;101697.03;5093737;28;20446;-73
2023/01/06 11:18:02;;;;;;;7.85;3.50;;;;;;;11.19;100.00;101688.13;5109476;28;20110;-73
2023/01/06 11:20:31;;;;;;;6.53;3.10;;;;;;;11.31;100.00;101698.38;5109527;28;20031;-73
2023/01/06 11:23:12;;;;;;;9.52;3.22;;;;;;;11.43;100.00;101686.25;5109190;28;20027;-73
2023/01/06 11:25:38;;;;;;;6.20;2.67;;;;;;;11.58;100.00;101696.94;5109460;28;20486;-73
2023/01/06 11:28:16;;;;;;;6.05;3.10;;;;;;;11.73;100.00;101694.28;5109391;28;20156;-73
2023/01/06 11:30:56;;;;;;;7.53;3.53;;;;;;;11.90;100.00;101697.66;5109141;28;20036;-73
2023/01/06 11:33:24;;;;;;;7.32;3.58;;;;;;;12.04;100.00;101678.91;5109371;28;20027;-73
2023/01/06 11:35:50;;;;;;;6.95;3.55;;;;;;;12.10;99.80;101676.53;5107645;28;20146;-73
2023/01/06 11:38:18;;;;;;;9.02;4.55;;;;;;;12.35;100.00;101683.22;5107861;28;20161;-73